createdAt,value
2023-03-06T00:01:38.204Z,27.50
2023-03-06T00:04:08.198Z,33.40
2023-03-06T00:06:35.608Z,33.90
2023-03-06T00:09:02.976Z,28.27
2023-03-06T00:11:30.272Z,27.83
2023-03-06T00:13:57.691Z,28.58
2023-03-06T00:16:25.773Z,27.17
2023-03-06T00:18:53.075Z,30.77
2023-03-06T00:21:21.839Z,28.77
2023-03-06T00:23:49.174Z,34.08
2023-03-06T00:26:16.561Z,33.50
2023-03-06T00:28:43.890Z,35.15
2023-03-06T00:31:13.555Z,35.10
2023-03-06T00:33:40.891Z,33.92
2023-03-06T00:36:08.453Z,29.48
2023-03-06T00:38:37.277Z,34.75
2023-03-06T00:41:09.307Z,27.73
2023-03-06T00:43:37.875Z,34.65
2023-03-06T00:46:05.825Z,28.40
2023-03-06T00:48:34.122Z,35.88
2023-03-06T00:51:01.818Z,33.65
2023-03-06T00:53:29.084Z,34.70
2023-03-06T00:55:56.423Z,35.40
2023-03-06T00:58:23.765Z,34.85
2023-03-06T01:00:51.423Z,35.65
2023-03-06T01:03:18.787Z,35.78
2023-03-06T01:05:46.242Z,30.08
2023-03-06T01:08:13.579Z,32.72
2023-03-06T01:10:41.040Z,33.92
2023-03-06T01:13:09.767Z,29.42
2023-03-06T01:15:37.069Z,27.98
2023-03-06T01:18:04.575Z,33.65
2023-03-06T01:20:32.128Z,28.75
2023-03-06T01:22:59.478Z,36.47
2023-03-06T01:25:28.669Z,29.75
2023-03-06T01:27:58.715Z,34.60
2023-03-06T01:30:26.048Z,29.98
2023-03-06T01:32:53.353Z,34.95
2023-03-06T01:35:20.743Z,29.38
2023-03-06T01:37:48.147Z,34.22
2023-03-06T01:40:15.703Z,28.20
2023-03-06T01:42:43.082Z,35.40
2023-03-06T01:45:13.421Z,30.30
2023-03-06T01:47:40.912Z,29.58
2023-03-06T01:50:10.875Z,30.42
2023-03-06T01:52:47.950Z,33.72
2023-03-06T01:55:21.047Z,34.70
2023-03-06T01:57:55.159Z,28.13
2023-03-06T02:00:25.356Z,32.63
2023-03-06T02:02:55.742Z,28.65
2023-03-06T02:05:23.564Z,26.88
2023-03-06T02:07:51.913Z,29.13
2023-03-06T02:10:20.607Z,26.30
2023-03-06T02:12:50.314Z,26.42
2023-03-06T02:15:22.205Z,30.60
2023-03-06T02:17:51.257Z,30.45
2023-03-06T02:20:33.739Z,24.95
2023-03-06T02:23:16.745Z,24.35
2023-03-06T02:25:48.428Z,24.75
2023-03-06T02:28:18.782Z,24.08
2023-03-06T02:30:48.662Z,24.75
2023-03-06T02:33:23.139Z,23.75
2023-03-06T02:35:55.798Z,24.25
2023-03-06T02:38:28.993Z,24.05
2023-03-06T02:40:58.145Z,23.63
2023-03-06T02:43:34.552Z,23.63
2023-03-06T02:46:03.012Z,22.52
2023-03-06T02:48:30.303Z,22.55
2023-03-06T02:50:57.922Z,23.75
2023-03-06T02:53:26.409Z,22.73
2023-03-06T02:55:54.503Z,23.15
2023-03-06T02:58:21.872Z,23.42
2023-03-06T03:00:49.676Z,23.95
2023-03-06T03:03:17.966Z,22.70
2023-03-06T03:05:45.276Z,23.23
2023-03-06T03:08:20.140Z,23.17
2023-03-06T03:10:49.223Z,24.15
2023-03-06T03:13:16.654Z,24.33
2023-03-06T03:15:46.706Z,23.23
2023-03-06T03:18:14.087Z,22.83
2023-03-06T03:20:43.849Z,24.73
2023-03-06T03:23:11.225Z,23.00
2023-03-06T03:25:38.594Z,23.98
2023-03-06T03:28:06.155Z,23.35
2023-03-06T03:30:33.638Z,22.33
2023-03-06T03:33:01.384Z,23.05
2023-03-06T03:35:28.921Z,23.70
2023-03-06T03:37:57.109Z,23.20
2023-03-06T03:40:24.772Z,24.08
2023-03-06T03:42:52.380Z,24.17
2023-03-06T03:45:20.809Z,23.30
2023-03-06T03:47:48.312Z,23.48
2023-03-06T03:50:15.960Z,23.00
2023-03-06T03:52:43.812Z,23.52
2023-03-06T03:55:12.763Z,23.05
2023-03-06T03:57:43.121Z,24.13
2023-03-06T04:00:16.046Z,21.95
2023-03-06T04:02:57.475Z,22.70
2023-03-06T04:05:35.956Z,23.58
2023-03-06T04:08:05.740Z,22.27
2023-03-06T04:10:35.060Z,24.15
2023-03-06T04:13:03.445Z,24.00
2023-03-06T04:15:31.971Z,22.58
2023-03-06T04:18:00.967Z,23.02
2023-03-06T04:20:30.589Z,22.70
2023-03-06T04:23:00.247Z,23.95
2023-03-06T04:25:27.894Z,22.75
2023-03-06T04:27:55.361Z,21.70
2023-03-06T04:30:25.585Z,22.02
2023-03-06T04:32:53.105Z,22.25
2023-03-06T04:35:20.678Z,22.77
2023-03-06T04:37:56.379Z,21.45
2023-03-06T04:40:28.716Z,22.25
2023-03-06T04:42:58.363Z,22.27
2023-03-06T04:45:27.210Z,22.20
2023-03-06T04:47:55.144Z,21.25
2023-03-06T04:50:24.035Z,22.25
2023-03-06T04:52:51.836Z,21.20
2023-03-06T04:55:19.891Z,20.50
2023-03-06T04:57:47.880Z,22.42
2023-03-06T05:00:22.200Z,23.33
2023-03-06T05:02:51.120Z,22.08
2023-03-06T05:05:19.375Z,21.75
2023-03-06T05:07:47.163Z,23.25
2023-03-06T05:10:16.687Z,23.90
2023-03-06T05:12:44.829Z,23.65
2023-03-06T05:15:13.196Z,25.30
2023-03-06T05:17:40.652Z,27.15
2023-03-06T05:20:10.300Z,25.45
2023-03-06T05:22:38.033Z,28.17
2023-03-06T05:25:06.473Z,27.48
2023-03-06T05:27:34.335Z,27.95
2023-03-06T05:30:01.789Z,29.38
2023-03-06T05:32:29.414Z,28.50
2023-03-06T05:34:56.745Z,28.08
2023-03-06T05:37:24.384Z,30.10
2023-03-06T05:39:51.918Z,31.15
2023-03-06T05:42:21.936Z,31.08
2023-03-06T05:44:49.361Z,32.63
2023-03-06T05:47:16.783Z,31.15
2023-03-06T05:49:44.108Z,33.88
2023-03-06T05:52:13.114Z,31.90
2023-03-06T05:54:40.396Z,31.30
2023-03-06T05:57:07.852Z,32.10
2023-03-06T05:59:35.970Z,30.92
2023-03-06T06:02:05.395Z,31.45
2023-03-06T06:04:32.881Z,30.83
2023-03-06T06:07:01.245Z,30.42
2023-03-06T06:09:29.277Z,31.67
2023-03-06T06:12:02.425Z,31.05
2023-03-06T06:14:30.742Z,32.53
2023-03-06T06:16:58.041Z,32.17
2023-03-06T06:19:28.038Z,29.95
2023-03-06T06:21:55.682Z,32.72
2023-03-06T06:24:25.603Z,34.40
2023-03-06T06:26:55.626Z,33.72
2023-03-06T06:29:23.484Z,31.88
2023-03-06T06:31:52.135Z,33.53
2023-03-06T06:34:20.720Z,32.28
2023-03-06T06:36:48.331Z,32.47
2023-03-06T06:39:20.279Z,32.35
2023-03-06T06:42:05.620Z,32.10
2023-03-06T06:44:38.937Z,31.23
2023-03-06T06:47:22.208Z,33.00
2023-03-06T06:49:52.775Z,30.40
2023-03-06T06:52:21.000Z,30.92
2023-03-06T06:54:48.331Z,31.13
2023-03-06T06:57:16.332Z,30.95
2023-03-06T06:59:43.805Z,29.83
2023-03-06T07:02:12.945Z,31.17
2023-03-06T07:04:52.343Z,30.77
2023-03-06T07:07:25.541Z,29.35
2023-03-06T07:09:54.680Z,28.50
2023-03-06T07:12:22.122Z,28.58
2023-03-06T07:14:50.673Z,29.00
2023-03-06T07:17:18.420Z,30.65
2023-03-06T07:19:45.859Z,31.63
2023-03-06T07:22:13.313Z,30.30
2023-03-06T07:24:40.680Z,30.88
2023-03-06T07:27:08.080Z,30.05
2023-03-06T07:29:35.598Z,31.40
2023-03-06T07:32:03.039Z,31.33
2023-03-06T07:34:30.404Z,31.85
2023-03-06T07:36:57.767Z,30.60
2023-03-06T07:39:25.176Z,30.45
2023-03-06T07:41:53.476Z,30.80
2023-03-06T07:44:20.867Z,31.17
2023-03-06T07:46:48.195Z,31.80
2023-03-06T07:49:15.994Z,31.20
2023-03-06T07:51:43.527Z,32.20
2023-03-06T07:54:10.939Z,32.58
2023-03-06T07:56:38.313Z,33.78
2023-03-06T07:59:05.596Z,31.45
2023-03-06T08:01:33.177Z,32.80
2023-03-06T08:04:02.028Z,32.13
2023-03-06T08:06:29.504Z,33.63
2023-03-06T08:08:57.143Z,33.53
2023-03-06T08:11:27.089Z,33.92
2023-03-06T08:13:55.725Z,33.03
2023-03-06T08:16:25.865Z,34.33
2023-03-06T08:18:53.764Z,33.03
2023-03-06T08:21:26.710Z,32.25
2023-03-06T08:23:56.526Z,31.42
2023-03-06T08:26:27.226Z,32.97
2023-03-06T08:28:57.001Z,32.55
2023-03-06T08:31:35.909Z,32.97
2023-03-06T08:34:10.932Z,34.25
2023-03-06T08:36:38.831Z,31.90
2023-03-06T08:39:06.645Z,33.63
2023-03-06T08:41:34.337Z,34.78
2023-03-06T08:44:01.627Z,34.25
2023-03-06T08:46:32.718Z,34.78
2023-03-06T08:49:00.385Z,34.87
2023-03-06T08:51:29.039Z,33.40
2023-03-06T08:53:57.919Z,34.50
2023-03-06T08:56:36.088Z,34.30
2023-03-06T08:59:04.716Z,35.78
2023-03-06T09:01:35.148Z,35.28
2023-03-06T09:04:06.322Z,34.42
2023-03-06T09:06:38.640Z,36.00
2023-03-06T09:09:06.469Z,37.25
2023-03-06T09:11:34.201Z,35.90
2023-03-06T09:14:01.598Z,37.95
2023-03-06T09:16:29.234Z,37.17
2023-03-06T09:18:57.836Z,36.53
2023-03-06T09:21:26.268Z,34.83
2023-03-06T09:23:53.893Z,34.33
2023-03-06T09:26:21.413Z,35.72
2023-03-06T09:28:48.769Z,36.03
2023-03-06T09:31:18.673Z,34.00
2023-03-06T09:33:46.794Z,33.33
2023-03-06T09:36:19.211Z,32.78
2023-03-06T09:38:48.367Z,32.65
2023-03-06T09:41:27.956Z,30.23
2023-03-06T09:44:04.866Z,34.25
2023-03-06T09:46:59.640Z,33.55
2023-03-06T09:49:47.456Z,29.95
2023-03-06T09:52:23.464Z,30.58
2023-03-06T09:55:02.726Z,30.45
2023-03-06T09:57:41.789Z,30.83
2023-03-06T10:00:16.848Z,30.45
2023-03-06T10:02:45.938Z,29.38
2023-03-06T10:05:19.828Z,28.77
2023-03-06T10:08:00.580Z,29.83
2023-03-06T10:10:47.037Z,28.73
2023-03-06T10:13:38.209Z,28.73
2023-03-06T10:16:30.426Z,28.33
2023-03-06T10:19:04.515Z,28.35
2023-03-06T10:21:50.396Z,28.38
2023-03-06T10:24:35.142Z,27.35
2023-03-06T10:27:31.593Z,26.83
2023-03-06T10:30:11.326Z,26.55
2023-03-06T10:32:51.199Z,25.05
2023-03-06T10:35:22.183Z,26.38
2023-03-06T10:37:51.956Z,27.65
2023-03-06T10:40:21.903Z,29.80
2023-03-06T10:42:56.018Z,27.13
2023-03-06T10:45:33.076Z,26.65
2023-03-06T10:48:14.629Z,27.65
2023-03-06T10:50:41.980Z,26.60
2023-03-06T10:53:23.411Z,26.85
2023-03-06T10:56:01.384Z,27.10
2023-03-06T10:58:32.932Z,26.08
2023-03-06T11:01:09.297Z,26.85
2023-03-06T11:03:37.479Z,25.48
2023-03-06T11:06:13.096Z,25.55
2023-03-06T11:08:43.308Z,25.45
2023-03-06T11:11:36.401Z,24.80
2023-03-06T11:14:15.270Z,23.48
2023-03-06T11:16:53.011Z,23.10
2023-03-06T11:19:28.009Z,25.45
2023-03-06T11:22:06.030Z,25.33
2023-03-06T11:24:40.606Z,25.83
2023-03-06T11:27:19.237Z,23.83
2023-03-06T11:29:50.465Z,22.73
2023-03-06T11:32:39.372Z,24.70
2023-03-06T11:35:12.718Z,24.38
2023-03-06T11:38:07.765Z,23.58
2023-03-06T11:40:49.818Z,23.17
2023-03-06T11:43:44.986Z,23.52
2023-03-06T11:46:30.736Z,23.42
2023-03-06T11:49:12.976Z,24.60
2023-03-06T11:51:46.410Z,24.15
2023-03-06T11:54:14.229Z,21.88
2023-03-06T11:56:55.417Z,23.05
2023-03-06T11:59:37.386Z,23.25
2023-03-06T12:02:21.923Z,23.40
2023-03-06T12:05:01.380Z,22.48
2023-03-06T12:07:58.012Z,21.42
2023-03-06T12:10:51.871Z,22.55
2023-03-06T12:16:11.083Z,22.88
2023-03-06T12:19:15.981Z,21.58
2023-03-06T12:21:47.261Z,21.00
2023-03-06T12:24:32.208Z,21.47
2023-03-06T12:27:08.208Z,21.88
2023-03-06T12:29:47.727Z,21.40
2023-03-06T12:32:38.397Z,19.30
2023-03-06T12:35:28.060Z,21.52
2023-03-06T12:38:04.377Z,19.02
2023-03-06T12:40:59.353Z,19.20
2023-03-06T12:43:39.926Z,19.23
2023-03-06T12:46:25.333Z,19.08
2023-03-06T12:49:08.890Z,18.98
2023-03-06T12:51:37.619Z,19.75
2023-03-06T12:54:11.326Z,18.60
2023-03-06T12:56:39.821Z,20.02
2023-03-06T12:59:47.914Z,19.40
2023-03-06T13:02:24.480Z,18.70
2023-03-06T13:05:14.614Z,18.58
2023-03-06T13:08:12.704Z,19.02
2023-03-06T13:10:42.337Z,18.52
2023-03-06T13:13:34.217Z,19.30
2023-03-06T13:16:15.944Z,19.58
2023-03-06T13:18:43.276Z,18.67
2023-03-06T13:22:00.268Z,17.98
2023-03-06T13:24:33.270Z,17.58
2023-03-06T13:27:12.079Z,17.23
2023-03-06T13:29:39.368Z,18.70
2023-03-06T13:32:15.932Z,17.30
2023-03-06T13:34:52.498Z,16.25
2023-03-06T13:37:20.166Z,16.83
2023-03-06T13:39:59.585Z,15.90
2023-03-06T13:42:37.425Z,17.05
2023-03-06T13:45:23.931Z,16.50
2023-03-06T13:48:22.616Z,16.33
2023-03-06T13:50:46.242Z,16.65
2023-03-06T13:53:25.348Z,17.05
2023-03-06T13:56:10.008Z,16.75
2023-03-06T13:58:53.434Z,17.75
2023-03-06T14:01:44.942Z,19.02
2023-03-06T14:04:38.051Z,17.85
2023-03-06T14:07:11.184Z,19.60
2023-03-06T14:09:43.580Z,17.95
2023-03-06T14:12:27.874Z,17.27
2023-03-06T14:14:58.748Z,18.42
2023-03-06T14:17:34.831Z,18.85
2023-03-06T14:20:18.224Z,18.65
2023-03-06T14:22:45.707Z,18.13
2023-03-06T14:25:13.032Z,18.90
2023-03-06T14:27:58.173Z,19.85
2023-03-06T14:30:28.068Z,19.63
2023-03-06T14:32:58.419Z,19.27
2023-03-06T14:35:32.128Z,19.30
2023-03-06T14:38:02.810Z,19.77
2023-03-06T14:40:34.700Z,18.23
2023-03-06T14:43:12.360Z,18.42
2023-03-06T14:46:14.959Z,18.67
2023-03-06T14:48:45.821Z,18.77
2023-03-06T14:51:21.012Z,18.15
2023-03-06T14:53:50.693Z,17.23
2023-03-06T14:56:21.248Z,16.92
2023-03-06T14:58:56.865Z,17.40
2023-03-06T15:01:40.894Z,17.08
2023-03-06T15:04:45.744Z,18.05
2023-03-06T15:07:17.709Z,17.80
2023-03-06T15:09:49.473Z,17.70
2023-03-06T15:12:22.785Z,16.95
2023-03-06T15:15:09.571Z,16.50
2023-03-06T15:17:41.709Z,16.50
2023-03-06T15:21:00.289Z,15.05
2023-03-06T15:23:40.177Z,14.32
2023-03-06T15:26:31.929Z,14.25
2023-03-06T15:29:11.293Z,15.88
2023-03-06T15:31:44.045Z,15.18
2023-03-06T15:34:11.478Z,15.10
2023-03-06T15:36:42.786Z,15.68
2023-03-06T15:39:28.160Z,16.88
2023-03-06T15:42:00.774Z,13.00
2023-03-06T15:44:31.693Z,12.55
2023-03-06T15:47:08.548Z,12.75
2023-03-06T15:49:38.138Z,13.05
2023-03-06T15:52:09.433Z,12.18
2023-03-06T15:54:37.127Z,13.93
2023-03-06T15:57:06.087Z,12.85
2023-03-06T15:59:41.453Z,13.13
2023-03-06T16:02:17.985Z,13.57
2023-03-06T16:04:46.110Z,13.40
2023-03-06T16:07:14.254Z,13.95
2023-03-06T16:09:42.880Z,12.70
2023-03-06T16:12:30.743Z,13.18
2023-03-06T16:15:01.202Z,12.55
2023-03-06T16:17:28.483Z,13.48
2023-03-06T16:19:55.869Z,13.55
2023-03-06T16:22:23.242Z,13.00
2023-03-06T16:24:50.925Z,11.93
2023-03-06T16:27:19.811Z,14.13
2023-03-06T16:29:47.232Z,13.60
2023-03-06T16:32:14.499Z,14.00
2023-03-06T16:34:41.942Z,13.68
2023-03-06T16:37:12.749Z,13.90
2023-03-06T16:39:40.172Z,13.45
2023-03-06T16:42:07.487Z,13.32
2023-03-06T16:44:34.830Z,12.85
2023-03-06T16:47:02.111Z,13.32
2023-03-06T16:49:29.544Z,13.88
2023-03-06T16:51:56.908Z,13.25
2023-03-06T16:54:26.161Z,15.10
2023-03-06T16:56:53.491Z,14.10
2023-03-06T16:59:21.042Z,14.13
2023-03-06T17:01:48.378Z,15.07
2023-03-06T17:04:15.769Z,14.32
2023-03-06T17:06:43.346Z,14.68
2023-03-06T17:09:11.074Z,14.27
2023-03-06T17:11:38.758Z,14.55
2023-03-06T17:14:06.978Z,14.52
2023-03-06T17:16:36.521Z,14.13
2023-03-06T17:19:03.933Z,14.02
2023-03-06T17:21:31.644Z,14.90
2023-03-06T17:24:01.649Z,14.45
2023-03-06T17:26:29.292Z,14.38
2023-03-06T17:28:56.778Z,14.48
2023-03-06T17:31:26.798Z,14.55
2023-03-06T17:33:59.114Z,14.98
2023-03-06T17:36:27.835Z,15.70
2023-03-06T17:38:56.927Z,15.65
2023-03-06T17:41:25.040Z,15.50
2023-03-06T17:43:55.270Z,16.23
2023-03-06T17:46:22.694Z,15.25
2023-03-06T17:48:50.280Z,15.32
2023-03-06T17:51:17.634Z,15.48
2023-03-06T17:53:45.001Z,15.35
2023-03-06T17:56:14.331Z,14.63
2023-03-06T17:58:41.733Z,15.60
2023-03-06T18:01:29.953Z,15.20
2023-03-06T18:03:57.669Z,16.02
2023-03-06T18:06:27.566Z,16.38
2023-03-06T18:08:54.936Z,15.18
2023-03-06T18:11:22.802Z,16.42
2023-03-06T18:13:50.610Z,15.57
2023-03-06T18:16:20.992Z,16.65
2023-03-06T18:18:51.693Z,16.08
2023-03-06T18:21:19.929Z,17.10
2023-03-06T18:23:47.421Z,16.25
2023-03-06T18:26:18.597Z,15.38
2023-03-06T18:28:48.063Z,17.33
2023-03-06T18:31:24.606Z,15.85
2023-03-06T18:33:53.360Z,15.13
2023-03-06T18:36:22.873Z,15.77
2023-03-06T18:38:50.510Z,16.05
2023-03-06T18:41:19.229Z,16.00
2023-03-06T18:43:55.127Z,15.40
2023-03-06T18:46:23.736Z,17.05
2023-03-06T18:48:51.276Z,15.13
2023-03-06T18:51:20.128Z,15.63
2023-03-06T18:53:47.766Z,14.93
2023-03-06T18:56:22.340Z,15.02
2023-03-06T18:58:50.466Z,17.05
2023-03-06T19:01:18.475Z,16.67
2023-03-06T19:03:49.179Z,16.02
2023-03-06T19:06:17.330Z,17.38
2023-03-06T19:08:45.192Z,16.90
2023-03-06T19:11:15.153Z,16.52
2023-03-06T19:13:43.033Z,15.63
2023-03-06T19:16:17.750Z,17.63
2023-03-06T19:18:45.072Z,16.75
2023-03-06T19:21:20.972Z,17.10
2023-03-06T19:23:49.101Z,17.42
2023-03-06T19:26:18.719Z,18.42
2023-03-06T19:28:47.006Z,19.15
2023-03-06T19:31:20.449Z,19.77
2023-03-06T19:33:49.229Z,20.65
2023-03-06T19:36:19.291Z,22.48
2023-03-06T19:38:52.446Z,23.13
2023-03-06T19:41:19.714Z,20.67
2023-03-06T19:43:53.846Z,21.00
2023-03-06T19:46:22.112Z,20.55
2023-03-06T19:48:55.062Z,20.15
2023-03-06T19:51:22.526Z,20.63
2023-03-06T19:53:49.906Z,21.13
2023-03-06T19:56:29.080Z,19.38
2023-03-06T19:58:56.970Z,18.77
2023-03-06T20:01:26.612Z,18.98
2023-03-06T20:03:59.461Z,18.08
2023-03-06T20:06:29.253Z,17.52
2023-03-06T20:08:57.257Z,16.00
2023-03-06T20:11:29.841Z,17.27
2023-03-06T20:13:59.684Z,18.13
2023-03-06T20:16:28.196Z,16.70
2023-03-06T20:18:58.758Z,17.27
2023-03-06T20:21:31.348Z,16.00
2023-03-06T20:23:59.335Z,17.60
2023-03-06T20:26:28.826Z,18.42
2023-03-06T20:28:57.132Z,17.23
2023-03-06T20:31:26.779Z,15.82
2023-03-06T20:33:57.047Z,18.42
2023-03-06T20:36:28.889Z,18.05
2023-03-06T20:38:59.022Z,17.23
2023-03-06T20:41:28.743Z,17.02
2023-03-06T20:43:58.227Z,17.20
2023-03-06T20:46:26.227Z,17.27
2023-03-06T20:48:54.369Z,15.85
2023-03-06T20:51:28.588Z,15.70
2023-03-06T20:53:57.538Z,16.27
2023-03-06T20:56:27.884Z,18.58
2023-03-06T20:58:55.647Z,17.90
2023-03-06T21:01:31.634Z,18.33
2023-03-06T21:04:00.144Z,19.92
2023-03-06T21:06:30.864Z,19.33
2023-03-06T21:08:59.595Z,17.75
2023-03-06T21:11:27.962Z,18.00
2023-03-06T21:13:56.001Z,18.63
2023-03-06T21:16:25.638Z,19.95
2023-03-06T21:18:58.029Z,19.58
2023-03-06T21:21:29.801Z,21.10
2023-03-06T21:23:57.682Z,20.05
2023-03-06T21:26:27.346Z,18.70
2023-03-06T21:28:57.167Z,20.67
2023-03-06T21:31:25.228Z,20.55
2023-03-06T21:33:52.600Z,18.92
2023-03-06T21:36:21.788Z,20.15
2023-03-06T21:38:50.185Z,20.58
2023-03-06T21:41:28.615Z,20.17
2023-03-06T21:43:57.309Z,20.27
2023-03-06T21:46:25.579Z,19.30
2023-03-06T21:48:53.506Z,20.08
2023-03-06T21:51:23.460Z,19.95
2023-03-06T21:53:52.717Z,18.80
2023-03-06T21:56:23.849Z,19.83
2023-03-06T21:58:51.552Z,19.77
2023-03-06T22:01:22.800Z,19.65
2023-03-06T22:03:50.717Z,20.23
2023-03-06T22:06:22.815Z,19.67
2023-03-06T22:11:19.691Z,19.52
2023-03-06T22:13:50.598Z,19.88
2023-03-06T22:16:18.359Z,19.23
2023-03-06T22:18:47.389Z,20.13
2023-03-06T22:21:16.592Z,18.88
2023-03-06T22:23:44.323Z,19.83
2023-03-06T22:26:14.263Z,20.73
2023-03-06T22:28:42.090Z,20.35
2023-03-06T22:31:13.672Z,20.58
2023-03-06T22:33:44.302Z,19.33
2023-03-06T22:36:14.412Z,20.23
2023-03-06T22:38:43.764Z,21.05
2023-03-06T22:41:12.674Z,20.10
2023-03-06T22:43:40.282Z,20.15
2023-03-06T22:46:10.731Z,18.67
2023-03-06T22:48:38.119Z,19.50
2023-03-06T22:51:17.171Z,19.83
2023-03-06T22:53:45.081Z,19.73
2023-03-06T22:56:15.332Z,19.60
2023-03-06T22:58:44.812Z,19.55
2023-03-06T23:01:18.442Z,18.23
2023-03-06T23:03:54.236Z,18.95
2023-03-06T23:06:25.030Z,19.05
2023-03-06T23:09:00.900Z,20.00
2023-03-06T23:11:29.201Z,20.00
2023-03-06T23:14:17.157Z,19.73
2023-03-06T23:17:03.530Z,19.85
2023-03-06T23:19:53.125Z,19.38
2023-03-06T23:22:39.103Z,20.25
2023-03-06T23:25:24.888Z,19.25
2023-03-06T23:27:52.283Z,19.65
2023-03-06T23:30:19.726Z,20.80
2023-03-06T23:32:47.007Z,21.17
2023-03-06T23:35:14.561Z,21.38
2023-03-06T23:37:42.134Z,22.85
2023-03-06T23:40:10.246Z,20.55
2023-03-06T23:42:38.269Z,22.40
2023-03-06T23:45:07.302Z,20.67
2023-03-06T23:47:34.957Z,22.00
2023-03-06T23:50:02.429Z,21.08
2023-03-06T23:52:29.755Z,23.13
2023-03-06T23:54:57.149Z,20.00
2023-03-06T23:57:26.888Z,20.05
2023-03-06T23:59:54.221Z,21.73
